Time;durP1;ratioP1;P1;durP2;ratioP2;P2;SDS_P1;SDS_P2;PMS_P1;PMS_P2;Temp;Humidity;BMP_temperature;BMP_pressure;BME280_temperature;BME280_humidity;BME280_pressure;Samples;Min_cycle;Max_cycle;Signal;HPM_P1;HPM_P2
2021/01/08 00:01:40;;;;;;;26.90;12.30;;;;;;;-0.38;87.35;98351.64;249902;1148;22994;-78
2021/01/08 00:06:43;;;;;;;23.75;11.65;;;;;;;-0.31;87.10;98346.28;250032;1152;23422;-76
2021/01/08 00:11:45;;;;;;;22.50;11.35;;;;;;;-0.29;87.05;98352.92;249842;1148;23024;-76
2021/01/08 00:16:47;;;;;;;22.80;11.27;;;;;;;-0.27;86.99;98352.69;249791;1148;22973;-78
2021/01/08 00:21:50;;;;;;;24.93;11.47;;;;;;;-0.23;87.02;98354.63;249759;1148;22941;-79
2021/01/08 00:26:54;;;;;;;24.50;12.30;;;;;;;-0.15;87.14;98357.95;249780;1152;23040;-78
2021/01/08 00:31:58;;;;;;;24.17;11.83;;;;;;;-0.10;87.28;98366.80;249862;1147;22964;-79
2021/01/08 00:37:00;;;;;;;21.55;11.10;;;;;;;-0.10;87.45;98366.80;249807;1148;23053;-76
2021/01/08 00:42:06;;;;;;;21.40;11.25;;;;;;;-0.11;87.37;98359.09;249831;1147;26108;-78
2021/01/08 00:47:11;;;;;;;22.75;11.60;;;;;;;-0.14;86.77;98365.64;249952;1148;22931;-78
2021/01/08 00:52:13;;;;;;;28.33;11.77;;;;;;;-0.14;87.35;98365.64;250124;1148;22987;-78
2021/01/08 00:57:16;;;;;;;26.27;12.13;;;;;;;-0.14;87.12;98364.83;250029;1148;26768;-79
2021/01/08 01:02:18;;;;;;;20.35;10.85;;;;;;;-0.13;87.22;98361.17;249738;1147;22938;-78
2021/01/08 01:07:20;;;;;;;21.75;10.55;;;;;;;-0.20;86.49;98364.73;249835;1148;22966;-79
2021/01/08 01:12:23;;;;;;;20.35;9.95;;;;;;;-0.24;86.81;98368.84;249828;1147;22949;-76
2021/01/08 01:17:25;;;;;;;23.63;11.40;;;;;;;-0.26;86.88;98364.83;249611;1147;22948;-78
2021/01/08 01:22:28;;;;;;;18.23;9.13;;;;;;;-0.26;87.25;98360.36;249807;1148;23537;-80
2021/01/08 01:27:30;;;;;;;24.70;10.70;;;;;;;-0.28;86.74;98367.70;249738;1155;22931;-77
2021/01/08 01:32:33;;;;;;;21.00;10.87;;;;;;;-0.27;87.05;98363.22;249770;1148;22914;-78
2021/01/08 01:37:35;;;;;;;19.87;10.13;;;;;;;-0.25;86.78;98363.78;249620;1148;22943;-79
2021/01/08 01:42:37;;;;;;;23.20;11.37;;;;;;;-0.22;86.59;98356.23;249841;1148;22982;-81
2021/01/08 01:47:40;;;;;;;23.55;11.95;;;;;;;-0.20;87.62;98351.56;249848;1148;22980;-78
2021/01/08 01:52:42;;;;;;;27.55;13.15;;;;;;;-0.16;86.72;98354.53;249854;1148;23986;-78
2021/01/08 01:57:45;;;;;;;34.45;16.35;;;;;;;-0.10;87.37;98347.55;250142;1148;22947;-78
2021/01/08 02:02:56;;;;;;;33.33;15.83;;;;;;;-0.08;87.53;98346.29;249971;1148;25079;-79
2021/01/08 02:08:06;;;;;;;31.47;14.43;;;;;;;-0.08;87.59;98340.23;249972;1148;22939;-77
2021/01/08 02:13:15;;;;;;;30.32;13.62;;;;;;;-0.11;86.41;98341.48;249946;1147;22950;-78
2021/01/08 02:18:19;;;;;;;27.97;13.70;;;;;;;-0.12;87.17;98334.61;249923;1152;24452;-78
2021/01/08 02:23:50;;;;;;;26.20;12.73;;;;;;;-0.16;86.10;98333.46;250099;1148;22956;-79
2021/01/08 02:28:53;;;;;;;24.43;12.57;;;;;;;-0.16;86.71;98322.14;249865;1152;22974;-77
2021/01/08 02:33:57;;;;;;;27.63;13.47;;;;;;;-0.13;87.15;98338.27;249825;1148;22953;-78
2021/01/08 02:39:00;;;;;;;25.00;12.87;;;;;;;-0.13;87.17;98333.00;249984;1148;22963;-77
2021/01/08 02:44:03;;;;;;;28.33;12.93;;;;;;;-0.14;86.47;98326.16;249602;1147;23031;-78
2021/01/08 02:49:06;;;;;;;27.10;12.83;;;;;;;-0.13;87.08;98322.47;249874;1147;22963;-77
2021/01/08 02:54:10;;;;;;;29.03;14.73;;;;;;;-0.13;87.36;98322.47;249824;1148;22930;-75
2021/01/08 02:59:14;;;;;;;36.85;17.65;;;;;;;-0.04;87.71;98323.73;249639;1148;22970;-77
2021/01/08 03:04:17;;;;;;;29.87;15.47;;;;;;;-0.03;87.20;98327.98;249746;1148;23116;-77
2021/01/08 03:09:20;;;;;;;30.30;14.10;;;;;;;-0.04;86.46;98325.58;250030;1147;23000;-78
2021/01/08 03:14:23;;;;;;;29.90;13.83;;;;;;;-0.05;87.19;98334.50;249924;1147;23001;-79
2021/01/08 03:19:25;;;;;;;29.90;13.47;;;;;;;-0.04;87.41;98326.37;249844;1153;22942;-77
2021/01/08 03:24:27;;;;;;;21.55;11.25;;;;;;;-0.02;87.67;98324.29;249748;1148;23132;-77
2021/01/08 03:29:29;;;;;;;23.87;12.17;;;;;;;0.00;86.88;98331.98;249796;1153;22935;-77
2021/01/08 03:34:31;;;;;;;22.77;11.90;;;;;;;0.03;87.45;98328.89;249872;1152;22970;-76
2021/01/08 03:39:34;;;;;;;22.75;11.80;;;;;;;0.03;86.81;98335.97;249890;1150;23412;-77
2021/01/08 03:44:36;;;;;;;16.80;9.15;;;;;;;0.02;87.35;98337.81;249847;1148;22970;-78
2021/01/08 03:49:38;;;;;;;18.10;10.30;;;;;;;-0.01;87.01;98336.44;249806;1148;22952;-78
2021/01/08 03:54:41;;;;;;;20.83;11.93;;;;;;;-0.03;86.27;98332.42;249783;1148;23005;-77
2021/01/08 03:59:43;;;;;;;19.73;10.57;;;;;;;-0.04;87.38;98331.63;249584;1148;22945;-79
2021/01/08 04:04:45;;;;;;;21.85;11.40;;;;;;;-0.05;87.34;98335.29;249683;1148;23341;-78
2021/01/08 04:09:47;;;;;;;25.17;13.60;;;;;;;-0.04;87.07;98338.74;249864;1148;22949;-78
2021/01/08 04:14:50;;;;;;;20.85;11.35;;;;;;;-0.02;87.44;98328.77;249805;1148;24264;-78
2021/01/08 04:19:52;;;;;;;16.37;10.33;;;;;;;-0.02;86.97;98334.03;249840;1149;22998;-79
2021/01/08 04:24:54;;;;;;;24.03;12.30;;;;;;;-0.04;86.98;98325.58;249844;1152;22978;-78
2021/01/08 04:29:56;;;;;;;21.47;12.17;;;;;;;-0.02;87.17;98320.87;249851;1147;22940;-78
2021/01/08 04:34:59;;;;;;;19.15;12.20;;;;;;;-0.04;87.38;98315.84;249834;1147;23074;-77
2021/01/08 04:40:02;;;;;;;19.07;10.43;;;;;;;0.01;87.18;98320.40;249910;1148;25992;-78
2021/01/08 04:45:06;;;;;;;21.03;12.67;;;;;;;-0.01;86.97;98320.63;249939;1146;23044;-77
2021/01/08 04:50:08;;;;;;;27.73;14.30;;;;;;;-0.04;86.84;98315.84;249911;1150;23106;-78
2021/01/08 04:55:11;;;;;;;28.93;13.97;;;;;;;-0.07;87.64;98316.30;250051;1148;23021;-78
2021/01/08 05:00:14;;;;;;;30.17;15.37;;;;;;;-0.03;86.97;98317.45;249900;1148;22938;-77
2021/01/08 05:05:17;;;;;;;29.17;16.90;;;;;;;0.04;87.60;98316.51;250196;1154;23164;-79
2021/01/08 05:10:19;;;;;;;27.60;14.60;;;;;;;0.13;87.71;98323.83;250189;1148;23012;-78
2021/01/08 05:15:24;;;;;;;31.00;15.20;;;;;;;0.16;87.65;98322.57;249910;1148;23042;-78
2021/01/08 05:20:27;;;;;;;24.50;14.03;;;;;;;0.20;88.25;98331.61;249823;1151;23041;-79
2021/01/08 05:25:29;;;;;;;23.67;13.03;;;;;;;0.27;87.38;98334.13;249615;1148;26373;-78
2021/01/08 05:30:31;;;;;;;23.90;12.85;;;;;;;0.27;87.10;98323.59;249683;1151;22964;-76
2021/01/08 05:35:34;;;;;;;31.13;13.63;;;;;;;0.29;87.66;98329.42;249590;1148;22948;-78
2021/01/08 05:40:41;;;;;;;31.10;15.60;;;;;;;0.31;87.89;98328.16;249998;1147;22987;-77
2021/01/08 05:45:44;;;;;;;29.23;15.40;;;;;;;0.33;87.71;98325.28;249945;1147;23110;-78
2021/01/08 05:50:46;;;;;;;34.25;17.10;;;;;;;0.36;87.39;98327.45;249561;1147;22909;-78
2021/01/08 05:55:48;;;;;;;26.50;14.25;;;;;;;0.33;86.84;98327.92;250003;1148;22974;-77
2021/01/08 06:01:01;;;;;;;32.90;16.60;;;;;;;0.26;86.68;98324.62;249677;1151;22986;-78
2021/01/08 06:06:04;;;;;;;33.37;16.27;;;;;;;0.22;86.58;98341.92;249958;1150;22967;-79
2021/01/08 06:11:09;;;;;;;29.13;15.07;;;;;;;0.19;86.75;98334.48;249572;1148;23060;-79
2021/01/08 06:16:18;;;;;;;32.50;15.77;;;;;;;0.10;86.29;98334.83;249768;1153;22973;-86
2021/01/08 06:21:34;;;;;;;28.83;15.30;;;;;;;0.08;87.46;98330.82;249985;1148;26364;-81
2021/01/08 06:26:37;;;;;;;28.23;14.80;;;;;;;0.05;87.22;98329.45;249981;1148;22908;-87
2021/01/08 06:31:47;;;;;;;23.90;12.23;;;;;;;0.06;86.67;98333.69;249860;1147;23209;-83
2021/01/08 06:37:06;;;;;;;31.05;14.35;;;;;;;0.03;87.25;98326.25;249947;1152;23052;-81
2021/01/08 06:42:09;;;;;;;25.35;14.00;;;;;;;0.02;86.16;98329.13;250505;1147;23028;-80
2021/01/08 06:47:16;;;;;;;23.67;12.90;;;;;;;0.00;86.07;98337.25;251129;1147;22941;-79
2021/01/08 06:52:18;;;;;;;26.27;13.90;;;;;;;-0.02;86.35;98339.30;251071;1147;24597;-82
2021/01/08 06:57:21;;;;;;;26.67;13.53;;;;;;;-0.02;85.92;98337.45;250473;1147;22939;-78
2021/01/08 07:02:25;;;;;;;27.07;14.30;;;;;;;0.00;86.33;98347.79;250931;1146;22992;-80
2021/01/08 07:07:31;;;;;;;29.33;15.30;;;;;;;0.02;86.68;98355.45;251234;1147;22920;-80
2021/01/08 07:12:34;;;;;;;25.80;13.27;;;;;;;0.00;85.94;98347.79;250767;1148;22904;-77
2021/01/08 07:17:38;;;;;;;28.67;16.00;;;;;;;-0.02;86.69;98353.26;250879;1148;23033;-78
2021/01/08 07:22:41;;;;;;;27.30;14.03;;;;;;;0.00;86.63;98358.33;250384;1148;22894;-76
2021/01/08 07:27:44;;;;;;;28.50;15.13;;;;;;;0.00;86.46;98355.69;250798;1147;22992;-77
2021/01/08 07:32:52;;;;;;;24.63;14.23;;;;;;;0.03;85.93;98363.13;250478;1148;23119;-76
2021/01/08 07:37:54;;;;;;;27.10;14.60;;;;;;;0.09;86.02;98369.30;250290;1147;23050;-77
2021/01/08 07:43:02;;;;;;;27.80;14.47;;;;;;;0.08;85.35;98379.02;250451;1147;22998;-77
2021/01/08 07:48:16;;;;;;;29.40;15.07;;;;;;;0.04;85.73;98383.14;250867;1147;23011;-77
2021/01/08 07:53:47;;;;;;;25.60;13.57;;;;;;;0.01;85.55;98382.81;250299;1147;23086;-77
2021/01/08 07:58:59;;;;;;;26.30;13.53;;;;;;;-0.07;85.41;98391.84;250423;1147;22941;-77
2021/01/08 08:04:07;;;;;;;24.30;12.13;;;;;;;-0.16;84.85;98394.02;250864;1147;23052;-76
2021/01/08 08:09:19;;;;;;;22.87;13.20;;;;;;;-0.23;85.61;98396.75;250305;1147;22948;-74
2021/01/08 08:14:24;;;;;;;26.43;13.43;;;;;;;-0.28;84.65;98407.18;250352;1146;22953;-76
2021/01/08 08:19:33;;;;;;;27.33;14.37;;;;;;;-0.21;86.19;98396.52;250309;1147;22888;-76
2021/01/08 08:24:35;;;;;;;27.40;14.70;;;;;;;-0.05;86.38;98392.43;250666;1148;22953;-76
2021/01/08 08:29:38;;;;;;;27.00;13.75;;;;;;;0.13;85.31;98396.80;252272;1147;22973;-75
2021/01/08 08:34:40;;;;;;;21.67;11.93;;;;;;;0.28;85.48;98396.31;250734;1147;22960;-78
2021/01/08 08:39:43;;;;;;;23.30;12.70;;;;;;;0.48;84.85;98396.75;250436;1148;22994;-78
2021/01/08 08:44:46;;;;;;;23.07;13.43;;;;;;;0.62;84.25;98399.16;250441;1147;23063;-77
2021/01/08 08:49:49;;;;;;;23.37;12.83;;;;;;;0.65;84.51;98404.74;250589;1147;23429;-76
2021/01/08 08:54:51;;;;;;;20.50;12.50;;;;;;;0.71;84.69;98400.37;250314;1147;23103;-77
2021/01/08 08:59:54;;;;;;;21.20;12.45;;;;;;;0.79;84.28;98401.86;250468;1147;23028;-78
2021/01/08 09:05:02;;;;;;;20.47;11.97;;;;;;;0.87;83.58;98392.77;250339;1148;22942;-76
2021/01/08 09:10:16;;;;;;;20.03;10.47;;;;;;;1.03;84.39;98399.94;250504;1147;22939;-77
2021/01/08 09:15:31;;;;;;;23.70;13.60;;;;;;;1.11;83.15;98410.13;250457;1147;22953;-76
2021/01/08 09:20:38;;;;;;;24.20;12.70;;;;;;;1.27;83.58;98405.92;250302;1148;22936;-76
2021/01/08 09:25:42;;;;;;;25.05;12.80;;;;;;;1.39;83.43;98411.16;250352;1148;23065;-75
2021/01/08 09:30:51;;;;;;;25.63;14.93;;;;;;;1.31;81.85;98414.17;250435;1147;22940;-77
2021/01/08 09:35:53;;;;;;;33.30;16.07;;;;;;;1.16;82.36;98407.59;250863;1148;23437;-76
2021/01/08 09:40:57;;;;;;;24.57;13.33;;;;;;;1.08;81.96;98413.23;250575;1147;22923;-76
2021/01/08 09:46:06;;;;;;;27.47;14.90;;;;;;;1.02;82.47;98417.62;250793;1147;24182;-77
2021/01/08 09:51:10;;;;;;;24.92;13.32;;;;;;;1.00;82.29;98409.13;250908;1146;26463;-76
2021/01/08 09:56:17;;;;;;;23.33;12.57;;;;;;;1.06;81.37;98406.59;250582;1148;22893;-76
2021/01/08 10:01:23;;;;;;;20.40;11.17;;;;;;;1.02;81.16;98398.33;250742;1148;22970;-77
2021/01/08 10:06:26;;;;;;;23.77;12.67;;;;;;;1.02;81.71;98391.23;251241;1147;23000;-76
2021/01/08 10:11:28;;;;;;;25.17;13.57;;;;;;;1.15;82.05;98390.15;250846;1147;23500;-76
2021/01/08 10:16:40;;;;;;;25.77;13.23;;;;;;;1.34;81.45;98389.95;250659;1147;26046;-76
2021/01/08 10:21:43;;;;;;;24.23;13.20;;;;;;;1.51;81.74;98382.86;250510;1148;23104;-77
2021/01/08 10:26:45;;;;;;;23.00;12.17;;;;;;;1.63;81.25;98376.71;250533;1147;22951;-77
2021/01/08 10:31:47;;;;;;;25.15;12.70;;;;;;;1.74;80.59;98380.33;250350;1147;22973;-77
2021/01/08 10:36:50;;;;;;;22.90;12.57;;;;;;;1.86;80.90;98379.20;250094;1147;23007;-78
2021/01/08 10:41:52;;;;;;;22.27;10.87;;;;;;;2.02;80.09;98372.28;250230;1147;22961;-76
2021/01/08 10:46:55;;;;;;;19.80;11.03;;;;;;;2.18;80.50;98381.25;250489;1148;22971;-76
2021/01/08 10:51:57;;;;;;;19.60;11.17;;;;;;;2.23;80.19;98365.45;250381;1147;22897;-77
2021/01/08 10:56:59;;;;;;;15.80;9.87;;;;;;;2.12;78.85;98365.56;250095;1147;22896;-77
2021/01/08 11:02:02;;;;;;;18.40;10.30;;;;;;;1.95;77.90;98362.94;250311;1148;26502;-78
2021/01/08 11:07:13;;;;;;;20.07;11.10;;;;;;;1.75;77.60;98366.88;250460;1148;22974;-79
2021/01/08 11:12:18;;;;;;;17.17;8.10;;;;;;;1.78;78.20;98360.31;250770;1148;23037;-76
2021/01/08 11:17:21;;;;;;;19.00;10.50;;;;;;;1.94;78.70;98356.05;250729;1147;23025;-77
2021/01/08 11:22:27;;;;;;;15.20;8.40;;;;;;;2.13;77.48;98352.09;251949;1146;23021;-75
2021/01/08 11:27:29;;;;;;;16.43;8.17;;;;;;;2.23;75.25;98356.72;252009;1147;24540;-77
2021/01/08 11:32:32;;;;;;;16.20;8.40;;;;;;;2.18;76.29;98354.00;250457;1148;22949;-76
2021/01/08 11:37:35;;;;;;;16.73;8.97;;;;;;;2.18;76.66;98349.53;250121;1148;22935;-76
2021/01/08 11:42:37;;;;;;;11.50;7.23;;;;;;;2.23;76.78;98343.52;250445;1148;22934;-75
2021/01/08 11:47:40;;;;;;;14.20;8.17;;;;;;;2.29;76.65;98350.45;250744;1148;24345;-77
2021/01/08 11:52:43;;;;;;;13.93;7.27;;;;;;;2.38;76.45;98334.98;250659;1147;23637;-77
2021/01/08 11:57:49;;;;;;;12.03;7.80;;;;;;;2.42;75.23;98346.67;251081;1146;22908;-76
2021/01/08 12:02:51;;;;;;;15.10;7.27;;;;;;;2.45;74.26;98350.65;250950;1147;22963;-79
2021/01/08 12:07:53;;;;;;;14.90;7.85;;;;;;;2.43;74.54;98345.61;250568;1147;26791;-78
2021/01/08 12:12:56;;;;;;;15.17;8.03;;;;;;;2.39;74.46;98345.31;250529;1148;23039;-77
2021/01/08 12:17:58;;;;;;;12.87;7.00;;;;;;;2.34;74.27;98347.09;250137;1148;23456;-80
2021/01/08 12:23:00;;;;;;;14.70;7.30;;;;;;;2.19;74.37;98343.19;250440;1148;22939;-77
2021/01/08 12:28:07;;;;;;;16.70;9.55;;;;;;;2.13;74.84;98338.09;250445;1147;22932;-77
2021/01/08 12:33:18;;;;;;;15.10;7.93;;;;;;;2.14;74.47;98348.42;250985;1147;22899;-79
2021/01/08 12:38:20;;;;;;;16.90;8.57;;;;;;;2.28;74.12;98345.41;250397;1147;22946;-78
2021/01/08 12:43:23;;;;;;;17.00;8.80;;;;;;;2.43;73.87;98342.97;250282;1147;23414;-77
2021/01/08 12:48:25;;;;;;;19.50;10.07;;;;;;;2.53;74.59;98344.94;250719;1148;22909;-79
2021/01/08 12:53:27;;;;;;;21.37;10.43;;;;;;;2.54;74.40;98343.89;250951;1147;22961;-77
2021/01/08 12:58:31;;;;;;;19.83;11.47;;;;;;;2.52;74.40;98338.07;250667;1147;22909;-77
2021/01/08 13:03:34;;;;;;;22.60;11.27;;;;;;;2.59;74.20;98333.39;250873;1147;22953;-78
2021/01/08 13:08:40;;;;;;;27.43;13.23;;;;;;;2.57;73.94;98330.17;250565;1147;23366;-78
2021/01/08 13:13:42;;;;;;;28.37;15.23;;;;;;;2.57;75.03;98335.47;250945;1147;22901;-79
2021/01/08 13:18:45;;;;;;;27.70;14.73;;;;;;;2.54;74.06;98336.75;250583;1148;22942;-77
2021/01/08 13:23:47;;;;;;;17.35;8.25;;;;;;;2.49;73.52;98333.25;250398;1148;22946;-77
2021/01/08 13:28:50;;;;;;;15.63;9.43;;;;;;;2.40;73.89;98341.61;250540;1147;26056;-78
2021/01/08 13:33:55;;;;;;;16.05;7.60;;;;;;;2.33;72.67;98332.27;250159;1148;22898;-78
2021/01/08 13:38:58;;;;;;;15.63;8.63;;;;;;;2.21;72.97;98338.47;250513;1148;22888;-78
2021/01/08 13:44:00;;;;;;;14.53;8.37;;;;;;;2.12;73.33;98345.20;250753;1148;22958;-77
2021/01/08 13:49:02;;;;;;;14.37;8.07;;;;;;;2.06;73.81;98340.91;250557;1148;22938;-76
2021/01/08 13:54:04;;;;;;;15.40;8.47;;;;;;;2.02;75.04;98358.29;250403;1148;22906;-79
2021/01/08 13:59:07;;;;;;;14.07;8.03;;;;;;;1.95;74.44;98358.45;250720;1148;23040;-76
2021/01/08 14:04:09;;;;;;;15.50;8.30;;;;;;;1.83;74.16;98357.73;250421;1147;22948;-78
2021/01/08 14:09:11;;;;;;;16.83;8.13;;;;;;;1.68;74.47;98358.31;250513;1147;23170;-79
2021/01/08 14:14:13;;;;;;;17.17;9.33;;;;;;;1.53;74.81;98354.37;250524;1148;23100;-78
2021/01/08 14:19:16;;;;;;;16.30;9.35;;;;;;;1.39;74.42;98358.37;250296;1148;23377;-79
2021/01/08 14:24:18;;;;;;;15.97;8.63;;;;;;;1.23;75.24;98359.93;250247;1148;22963;-79
2021/01/08 14:29:20;;;;;;;17.20;8.90;;;;;;;1.13;75.19;98363.19;250623;1148;23046;-78
2021/01/08 14:34:22;;;;;;;12.95;7.20;;;;;;;1.03;75.30;98357.73;250356;1147;26105;-78
2021/01/08 14:39:25;;;;;;;14.07;7.23;;;;;;;0.91;76.06;98354.34;250428;1147;22969;-77
2021/01/08 14:44:27;;;;;;;16.90;8.70;;;;;;;0.83;76.92;98355.53;250847;1147;22923;-79
2021/01/08 14:49:30;;;;;;;16.03;8.67;;;;;;;0.78;76.01;98368.61;250717;1147;22965;-80
2021/01/08 14:54:33;;;;;;;16.27;8.97;;;;;;;0.78;76.86;98365.97;250384;1147;22941;-79
2021/01/08 14:59:36;;;;;;;19.83;10.23;;;;;;;0.80;77.41;98372.62;250261;1148;22963;-77
2021/01/08 15:04:38;;;;;;;17.27;9.10;;;;;;;0.82;76.86;98372.38;252156;1148;22916;-77
2021/01/08 15:09:41;;;;;;;19.40;10.70;;;;;;;0.80;76.60;98366.55;251275;1147;22904;-79
2021/01/08 15:14:43;;;;;;;19.30;10.20;;;;;;;0.74;76.73;98364.84;250405;1148;26411;-78
2021/01/08 15:19:45;;;;;;;20.10;10.50;;;;;;;0.64;77.24;98365.44;250602;1148;22942;-79
2021/01/08 15:24:49;;;;;;;22.80;11.87;;;;;;;0.53;77.42;98372.33;250288;1148;22928;-78
2021/01/08 15:29:51;;;;;;;19.50;10.55;;;;;;;0.43;78.31;98372.13;250486;1148;22946;-78
2021/01/08 15:34:53;;;;;;;17.67;9.33;;;;;;;0.34;78.18;98379.59;250024;1148;23106;-79
2021/01/08 15:39:56;;;;;;;17.23;8.93;;;;;;;0.27;77.84;98384.19;249990;1148;23050;-79
2021/01/08 15:44:58;;;;;;;18.93;10.93;;;;;;;0.20;77.63;98383.48;250079;1148;22939;-79
2021/01/08 15:50:00;;;;;;;17.70;10.67;;;;;;;0.12;77.74;98382.80;249902;1148;22971;-79
2021/01/08 15:55:02;;;;;;;18.70;10.00;;;;;;;-0.01;77.70;98383.84;249763;1148;23026;-78
2021/01/08 16:00:08;;;;;;;17.90;8.95;;;;;;;-0.13;78.43;98390.13;250318;1148;22939;-78
2021/01/08 16:05:12;;;;;;;17.77;10.13;;;;;;;-0.24;79.01;98392.53;250036;1148;23003;-79
2021/01/08 16:10:14;;;;;;;22.05;10.15;;;;;;;-0.33;78.88;98393.89;250225;1148;22971;-79
2021/01/08 16:15:16;;;;;;;26.57;12.70;;;;;;;-0.40;78.12;98401.09;250014;1148;22988;-77
2021/01/08 16:20:18;;;;;;;21.90;11.63;;;;;;;-0.44;79.37;98408.62;250185;1148;26602;-77
2021/01/08 16:25:21;;;;;;;23.40;11.90;;;;;;;-0.43;78.79;98412.07;250331;1148;22967;-76
2021/01/08 16:30:23;;;;;;;29.27;14.23;;;;;;;-0.43;79.39;98412.86;249986;1148;22957;-80
2021/01/08 16:35:27;;;;;;;23.83;11.93;;;;;;;-0.41;80.13;98402.11;249822;1148;22945;-78
2021/01/08 16:40:29;;;;;;;31.80;15.20;;;;;;;-0.37;79.43;98411.16;249992;1148;22961;-78
2021/01/08 16:45:33;;;;;;;34.07;15.40;;;;;;;-0.28;80.02;98422.98;250091;1148;23075;-78
2021/01/08 16:50:35;;;;;;;32.87;14.23;;;;;;;-0.18;79.28;98423.21;250240;1148;22964;-79
2021/01/08 16:55:38;;;;;;;28.00;13.77;;;;;;;-0.10;79.37;98422.09;250434;1148;23489;-80
2021/01/08 17:00:40;;;;;;;33.97;15.40;;;;;;;-0.03;79.11;98424.59;249984;1148;22995;-81
2021/01/08 17:05:42;;;;;;;26.63;12.97;;;;;;;0.03;79.94;98434.23;250208;1148;22945;-78
2021/01/08 17:10:53;;;;;;;34.10;16.27;;;;;;;0.04;79.13;98430.55;250478;1148;27748;-79
2021/01/08 17:15:55;;;;;;;32.75;17.30;;;;;;;0.06;79.90;98433.77;250057;1147;23055;-79
2021/01/08 17:20:58;;;;;;;31.37;15.07;;;;;;;0.05;79.43;98439.27;249987;1148;23208;-79
2021/01/08 17:26:00;;;;;;;29.15;13.30;;;;;;;-0.01;79.52;98441.78;250363;1148;23331;-80
2021/01/08 17:31:02;;;;;;;29.73;14.17;;;;;;;-0.04;80.20;98446.71;250111;1148;22967;-77
2021/01/08 17:36:04;;;;;;;26.40;12.75;;;;;;;-0.10;79.24;98451.05;250220;1148;22994;-79
2021/01/08 17:41:12;;;;;;;25.80;12.27;;;;;;;-0.08;79.10;98456.09;250067;1148;22945;-79
2021/01/08 17:46:14;;;;;;;27.57;13.23;;;;;;;-0.10;80.13;98450.23;250499;1148;22900;-78
2021/01/08 17:51:17;;;;;;;25.00;12.00;;;;;;;-0.14;80.17;98452.53;250232;1148;22953;-79
2021/01/08 17:56:22;;;;;;;23.63;11.67;;;;;;;-0.21;79.78;98460.53;249754;1148;23122;-78
2021/01/08 18:01:24;;;;;;;26.50;12.55;;;;;;;-0.26;80.12;98459.60;250185;1148;22937;-79
2021/01/08 18:06:26;;;;;;;23.40;12.80;;;;;;;-0.35;79.85;98467.81;250157;1148;22945;-78
2021/01/08 18:11:28;;;;;;;21.35;11.30;;;;;;;-0.40;80.63;98469.52;250090;1147;22932;-79
2021/01/08 18:16:30;;;;;;;25.47;12.97;;;;;;;-0.40;80.60;98467.67;250309;1148;23106;-79
2021/01/08 18:21:40;;;;;;;26.93;13.63;;;;;;;-0.36;80.79;98476.73;250751;1148;22942;-79
2021/01/08 18:26:42;;;;;;;28.63;14.20;;;;;;;-0.28;80.53;98480.89;250476;1148;22954;-79
2021/01/08 18:31:45;;;;;;;24.43;12.60;;;;;;;-0.23;81.14;98483.63;250442;1148;22988;-79
2021/01/08 18:36:49;;;;;;;30.77;15.73;;;;;;;-0.19;80.63;98478.73;250725;1147;26379;-81
2021/01/08 18:41:52;;;;;;;31.77;16.63;;;;;;;-0.14;80.84;98486.77;250095;1148;23038;-80
2021/01/08 18:46:54;;;;;;;29.80;13.77;;;;;;;-0.09;80.78;98480.81;250234;1147;22970;-78
2021/01/08 18:51:56;;;;;;;27.80;13.80;;;;;;;-0.08;81.74;98491.12;249975;1148;22942;-80
2021/01/08 18:56:58;;;;;;;31.30;17.25;;;;;;;-0.09;80.84;98481.60;250304;1148;23094;-79
2021/01/08 19:02:01;;;;;;;30.17;16.40;;;;;;;-0.09;81.33;98480.81;250414;1148;22948;-79
2021/01/08 19:07:03;;;;;;;30.93;17.10;;;;;;;-0.10;80.63;98489.73;250577;1148;22942;-80
2021/01/08 19:12:08;;;;;;;30.20;16.17;;;;;;;-0.12;80.82;98487.33;250213;1147;22935;-80
2021/01/08 19:17:10;;;;;;;19.67;10.40;;;;;;;-0.11;81.04;98488.94;250194;1147;22961;-78
2021/01/08 19:22:13;;;;;;;26.00;13.40;;;;;;;-0.18;81.42;98499.56;250827;1148;22938;-79
2021/01/08 19:27:20;;;;;;;24.70;12.97;;;;;;;-0.28;80.54;98498.49;250879;1148;22953;-80
2021/01/08 19:32:25;;;;;;;24.40;12.95;;;;;;;-0.41;80.60;98497.64;250532;1148;23050;-79
2021/01/08 19:37:28;;;;;;;24.73;12.30;;;;;;;-0.50;80.58;98490.28;250405;1148;22963;-78
2021/01/08 19:42:35;;;;;;;28.30;13.20;;;;;;;-0.60;81.38;98490.81;250439;1148;22911;-79
2021/01/08 19:47:45;;;;;;;31.57;14.83;;;;;;;-0.68;81.00;98505.09;250635;1147;26385;-79
2021/01/08 19:52:49;;;;;;;26.33;12.30;;;;;;;-0.72;81.63;98506.56;251234;1148;23194;-78
2021/01/08 19:57:53;;;;;;;27.17;12.60;;;;;;;-0.73;81.26;98513.66;250893;1148;23138;-78
2021/01/08 20:02:58;;;;;;;29.20;14.67;;;;;;;-0.65;82.36;98511.75;250849;1148;24561;-76
2021/01/08 20:08:00;;;;;;;26.33;12.37;;;;;;;-0.58;81.96;98512.46;251191;1148;22933;-78
2021/01/08 20:13:03;;;;;;;26.40;13.00;;;;;;;-0.49;82.27;98519.03;251085;1148;23040;-77
2021/01/08 20:18:07;;;;;;;29.50;14.10;;;;;;;-0.38;81.46;98518.28;250860;1148;22938;-79
2021/01/08 20:23:09;;;;;;;29.70;13.05;;;;;;;-0.26;82.50;98522.78;250571;1148;23032;-79
2021/01/08 20:28:13;;;;;;;29.80;14.70;;;;;;;-0.19;81.77;98531.38;250838;1148;22947;-80
2021/01/08 20:33:15;;;;;;;22.07;11.23;;;;;;;-0.19;81.51;98534.81;250560;1147;22940;-78
2021/01/08 20:38:17;;;;;;;23.25;11.85;;;;;;;-0.28;81.30;98543.25;250326;1148;22932;-79
2021/01/08 20:43:22;;;;;;;24.13;12.77;;;;;;;-0.36;81.87;98545.16;250211;1148;22956;-79
2021/01/08 20:48:24;;;;;;;23.25;11.40;;;;;;;-0.44;81.28;98547.31;250201;1148;22963;-79
2021/01/08 20:53:26;;;;;;;22.23;11.33;;;;;;;-0.55;82.18;98551.48;250010;1148;22994;-80
2021/01/08 20:58:28;;;;;;;20.07;11.07;;;;;;;-0.62;81.94;98559.45;250365;1147;22966;-78
2021/01/08 21:03:30;;;;;;;23.30;11.73;;;;;;;-0.66;82.52;98555.65;250319;1151;22953;-77
2021/01/08 21:08:34;;;;;;;20.50;9.80;;;;;;;-0.73;82.59;98553.12;250317;1148;22981;-79
2021/01/08 21:13:38;;;;;;;17.85;9.70;;;;;;;-0.86;81.88;98556.67;250602;1148;23053;-77
2021/01/08 21:18:40;;;;;;;17.13;9.83;;;;;;;-0.97;81.98;98549.52;250476;1148;23201;-79
2021/01/08 21:23:43;;;;;;;18.27;10.17;;;;;;;-1.04;82.67;98552.20;250065;1147;22941;-77
2021/01/08 21:28:45;;;;;;;19.07;9.67;;;;;;;-1.10;82.44;98566.23;250327;1148;22938;-79
2021/01/08 21:33:47;;;;;;;21.70;11.37;;;;;;;-1.11;82.92;98566.45;250345;1148;23057;-77
2021/01/08 21:38:49;;;;;;;19.20;10.50;;;;;;;-1.11;82.72;98566.45;250200;1148;23183;-79
2021/01/08 21:43:53;;;;;;;22.23;11.43;;;;;;;-1.08;83.23;98574.73;250153;1148;22949;-76
2021/01/08 21:48:55;;;;;;;23.30;11.30;;;;;;;-1.05;82.85;98574.28;250396;1148;23069;-79
2021/01/08 21:53:57;;;;;;;20.70;10.50;;;;;;;-1.03;82.96;98581.95;250829;1148;22964;-81
2021/01/08 21:59:00;;;;;;;21.33;12.17;;;;;;;-0.96;82.95;98582.69;250227;1148;22948;-79
2021/01/08 22:04:03;;;;;;;26.10;11.73;;;;;;;-0.88;83.17;98579.78;250274;1148;22970;-78
2021/01/08 22:09:07;;;;;;;25.25;12.20;;;;;;;-0.83;83.03;98584.37;250310;1147;25906;-79
2021/01/08 22:14:11;;;;;;;21.43;10.93;;;;;;;-0.77;83.31;98578.25;250134;1148;23399;-78
2021/01/08 22:19:13;;;;;;;24.00;11.60;;;;;;;-0.75;83.02;98586.72;249962;1148;22995;-79
2021/01/08 22:24:15;;;;;;;23.30;11.20;;;;;;;-0.71;83.73;98590.52;250198;1148;24280;-79
2021/01/08 22:29:17;;;;;;;21.30;11.67;;;;;;;-0.68;83.73;98589.28;250136;1148;23036;-79
2021/01/08 22:34:20;;;;;;;26.17;13.10;;;;;;;-0.70;83.12;98586.05;250100;1148;23077;-80
2021/01/08 22:39:22;;;;;;;26.15;12.70;;;;;;;-0.72;83.55;98594.16;250080;1148;22963;-80
2021/01/08 22:44:24;;;;;;;28.45;12.55;;;;;;;-0.74;83.10;98583.07;249793;1148;22998;-79
2021/01/08 22:49:26;;;;;;;25.65;12.95;;;;;;;-0.75;83.74;98596.45;250228;1147;22897;-79
2021/01/08 22:54:28;;;;;;;27.70;14.30;;;;;;;-0.75;84.23;98601.70;250151;1148;23775;-77
2021/01/08 22:59:31;;;;;;;29.27;12.77;;;;;;;-0.74;84.24;98598.03;250124;1148;23072;-79
2021/01/08 23:04:34;;;;;;;28.75;13.50;;;;;;;-0.70;83.59;98601.83;250030;1148;22944;-79
2021/01/08 23:09:36;;;;;;;28.70;13.70;;;;;;;-0.65;83.88;98596.73;250176;1148;22948;-79